sensor_id;sensor_type;location;lat;lon;timestamp;P1;durP1;ratioP1;P2;durP2;ratioP2
30127;SDS011;16942;53.196;6.592;2022-07-22T00:01:20;12.77;;;3.33;;
30127;SDS011;16942;53.196;6.592;2022-07-22T00:03:46;24.50;;;4.97;;
30127;SDS011;16942;53.196;6.592;2022-07-22T00:06:12;10.10;;;3.10;;
30127;SDS011;16942;53.196;6.592;2022-07-22T00:08:38;17.37;;;4.13;;
30127;SDS011;16942;53.196;6.592;2022-07-22T00:11:04;17.67;;;4.33;;
30127;SDS011;16942;53.196;6.592;2022-07-22T00:13:30;8.60;;;3.83;;
30127;SDS011;16942;53.196;6.592;2022-07-22T00:15:57;8.40;;;3.43;;
30127;SDS011;16942;53.196;6.592;2022-07-22T00:18:23;8.90;;;2.83;;
30127;SDS011;16942;53.196;6.592;2022-07-22T00:20:49;13.17;;;3.50;;
30127;SDS011;16942;53.196;6.592;2022-07-22T00:23:15;10.67;;;3.23;;
30127;SDS011;16942;53.196;6.592;2022-07-22T00:25:41;16.77;;;4.17;;
30127;SDS011;16942;53.196;6.592;2022-07-22T00:28:07;11.63;;;4.87;;
30127;SDS011;16942;53.196;6.592;2022-07-22T00:30:33;10.17;;;3.67;;
30127;SDS011;16942;53.196;6.592;2022-07-22T00:32:59;13.00;;;3.40;;
30127;SDS011;16942;53.196;6.592;2022-07-22T00:35:25;11.07;;;3.40;;
30127;SDS011;16942;53.196;6.592;2022-07-22T00:37:51;8.63;;;3.03;;
30127;SDS011;16942;53.196;6.592;2022-07-22T00:40:17;7.60;;;2.83;;
30127;SDS011;16942;53.196;6.592;2022-07-22T00:42:43;9.27;;;2.80;;
30127;SDS011;16942;53.196;6.592;2022-07-22T00:45:09;9.00;;;2.60;;
30127;SDS011;16942;53.196;6.592;2022-07-22T00:47:36;10.97;;;2.30;;
30127;SDS011;16942;53.196;6.592;2022-07-22T00:50:02;7.53;;;2.37;;
30127;SDS011;16942;53.196;6.592;2022-07-22T00:52:29;7.03;;;2.20;;
30127;SDS011;16942;53.196;6.592;2022-07-22T00:54:56;5.20;;;2.40;;
30127;SDS011;16942;53.196;6.592;2022-07-22T00:57:22;11.87;;;3.57;;
30127;SDS011;16942;53.196;6.592;2022-07-22T00:59:48;6.23;;;2.27;;
30127;SDS011;16942;53.196;6.592;2022-07-22T01:02:14;10.00;;;2.40;;
30127;SDS011;16942;53.196;6.592;2022-07-22T01:04:40;8.23;;;2.53;;
30127;SDS011;16942;53.196;6.592;2022-07-22T01:07:06;13.03;;;2.67;;
30127;SDS011;16942;53.196;6.592;2022-07-22T01:09:32;10.60;;;2.40;;
30127;SDS011;16942;53.196;6.592;2022-07-22T01:11:58;11.03;;;2.10;;
30127;SDS011;16942;53.196;6.592;2022-07-22T01:14:24;8.23;;;2.17;;
30127;SDS011;16942;53.196;6.592;2022-07-22T01:16:50;7.10;;;2.17;;
30127;SDS011;16942;53.196;6.592;2022-07-22T01:19:16;12.33;;;2.10;;
30127;SDS011;16942;53.196;6.592;2022-07-22T01:21:42;8.80;;;2.33;;
30127;SDS011;16942;53.196;6.592;2022-07-22T01:24:08;10.43;;;2.70;;
30127;SDS011;16942;53.196;6.592;2022-07-22T01:26:34;6.47;;;2.23;;
30127;SDS011;16942;53.196;6.592;2022-07-22T01:29:00;10.20;;;2.83;;
30127;SDS011;16942;53.196;6.592;2022-07-22T01:31:26;8.00;;;2.33;;
30127;SDS011;16942;53.196;6.592;2022-07-22T01:33:53;7.43;;;2.20;;
30127;SDS011;16942;53.196;6.592;2022-07-22T01:36:20;8.87;;;1.87;;
30127;SDS011;16942;53.196;6.592;2022-07-22T01:38:46;7.03;;;1.83;;
30127;SDS011;16942;53.196;6.592;2022-07-22T01:41:12;9.27;;;2.57;;
30127;SDS011;16942;53.196;6.592;2022-07-22T01:43:38;7.33;;;2.13;;
30127;SDS011;16942;53.196;6.592;2022-07-22T01:46:05;6.70;;;1.77;;
30127;SDS011;16942;53.196;6.592;2022-07-22T01:48:31;10.20;;;2.27;;
30127;SDS011;16942;53.196;6.592;2022-07-22T01:50:58;5.63;;;2.03;;
30127;SDS011;16942;53.196;6.592;2022-07-22T01:53:24;5.00;;;1.47;;
30127;SDS011;16942;53.196;6.592;2022-07-22T01:55:50;2.83;;;1.87;;
30127;SDS011;16942;53.196;6.592;2022-07-22T01:58:16;5.33;;;1.93;;
30127;SDS011;16942;53.196;6.592;2022-07-22T02:00:43;3.13;;;1.77;;
30127;SDS011;16942;53.196;6.592;2022-07-22T02:03:09;5.00;;;1.73;;
30127;SDS011;16942;53.196;6.592;2022-07-22T02:05:35;4.37;;;1.63;;
30127;SDS011;16942;53.196;6.592;2022-07-22T02:08:02;9.17;;;1.80;;
30127;SDS011;16942;53.196;6.592;2022-07-22T02:10:29;4.77;;;1.67;;
30127;SDS011;16942;53.196;6.592;2022-07-22T02:12:56;5.93;;;1.90;;
30127;SDS011;16942;53.196;6.592;2022-07-22T02:15:22;6.33;;;1.57;;
30127;SDS011;16942;53.196;6.592;2022-07-22T02:17:48;10.53;;;2.80;;
30127;SDS011;16942;53.196;6.592;2022-07-22T02:20:14;5.47;;;1.60;;
30127;SDS011;16942;53.196;6.592;2022-07-22T02:22:40;5.73;;;1.70;;
30127;SDS011;16942;53.196;6.592;2022-07-22T02:25:07;8.63;;;1.80;;
30127;SDS011;16942;53.196;6.592;2022-07-22T02:27:33;4.07;;;1.37;;
30127;SDS011;16942;53.196;6.592;2022-07-22T02:29:59;6.20;;;1.53;;
30127;SDS011;16942;53.196;6.592;2022-07-22T02:32:25;6.73;;;2.00;;
30127;SDS011;16942;53.196;6.592;2022-07-22T02:34:51;6.77;;;1.70;;
30127;SDS011;16942;53.196;6.592;2022-07-22T02:37:17;4.20;;;1.90;;
30127;SDS011;16942;53.196;6.592;2022-07-22T02:39:43;3.67;;;1.50;;
30127;SDS011;16942;53.196;6.592;2022-07-22T02:42:09;5.43;;;1.90;;
30127;SDS011;16942;53.196;6.592;2022-07-22T02:44:35;6.03;;;2.30;;
30127;SDS011;16942;53.196;6.592;2022-07-22T02:47:01;5.43;;;1.80;;
30127;SDS011;16942;53.196;6.592;2022-07-22T02:49:27;8.80;;;1.90;;
30127;SDS011;16942;53.196;6.592;2022-07-22T02:51:53;10.27;;;1.90;;
30127;SDS011;16942;53.196;6.592;2022-07-22T02:54:19;8.37;;;1.70;;
30127;SDS011;16942;53.196;6.592;2022-07-22T02:56:45;4.07;;;1.60;;
30127;SDS011;16942;53.196;6.592;2022-07-22T02:59:11;6.17;;;1.87;;
30127;SDS011;16942;53.196;6.592;2022-07-22T03:01:37;4.03;;;1.80;;
30127;SDS011;16942;53.196;6.592;2022-07-22T03:04:03;6.83;;;1.70;;
30127;SDS011;16942;53.196;6.592;2022-07-22T03:06:29;5.27;;;1.47;;
30127;SDS011;16942;53.196;6.592;2022-07-22T03:08:55;3.90;;;1.40;;
30127;SDS011;16942;53.196;6.592;2022-07-22T03:11:21;4.33;;;1.40;;
30127;SDS011;16942;53.196;6.592;2022-07-22T03:13:47;4.13;;;1.80;;
30127;SDS011;16942;53.196;6.592;2022-07-22T03:16:13;5.77;;;1.60;;
30127;SDS011;16942;53.196;6.592;2022-07-22T03:18:39;4.30;;;1.70;;
30127;SDS011;16942;53.196;6.592;2022-07-22T03:21:05;4.97;;;1.53;;
30127;SDS011;16942;53.196;6.592;2022-07-22T03:23:31;3.10;;;1.47;;
30127;SDS011;16942;53.196;6.592;2022-07-22T03:25:57;5.90;;;1.60;;
30127;SDS011;16942;53.196;6.592;2022-07-22T03:28:23;8.00;;;1.73;;
30127;SDS011;16942;53.196;6.592;2022-07-22T03:30:50;4.87;;;1.70;;
30127;SDS011;16942;53.196;6.592;2022-07-22T03:33:16;9.67;;;2.37;;
30127;SDS011;16942;53.196;6.592;2022-07-22T03:35:42;7.30;;;1.57;;
30127;SDS011;16942;53.196;6.592;2022-07-22T03:38:08;7.40;;;1.93;;
30127;SDS011;16942;53.196;6.592;2022-07-22T03:40:34;6.30;;;1.70;;
30127;SDS011;16942;53.196;6.592;2022-07-22T03:43:00;4.97;;;1.70;;
30127;SDS011;16942;53.196;6.592;2022-07-22T03:45:26;7.40;;;1.60;;
30127;SDS011;16942;53.196;6.592;2022-07-22T03:47:52;6.90;;;2.10;;
30127;SDS011;16942;53.196;6.592;2022-07-22T03:50:19;6.27;;;2.03;;
30127;SDS011;16942;53.196;6.592;2022-07-22T03:52:45;4.90;;;1.60;;
30127;SDS011;16942;53.196;6.592;2022-07-22T03:55:11;6.93;;;1.87;;
30127;SDS011;16942;53.196;6.592;2022-07-22T03:57:37;8.43;;;1.97;;
30127;SDS011;16942;53.196;6.592;2022-07-22T04:00:04;5.70;;;1.50;;
30127;SDS011;16942;53.196;6.592;2022-07-22T04:02:31;7.83;;;1.97;;
30127;SDS011;16942;53.196;6.592;2022-07-22T04:04:57;6.43;;;1.77;;
30127;SDS011;16942;53.196;6.592;2022-07-22T04:07:23;11.93;;;2.03;;
30127;SDS011;16942;53.196;6.592;2022-07-22T04:09:49;4.40;;;1.73;;
30127;SDS011;16942;53.196;6.592;2022-07-22T04:12:15;6.23;;;1.80;;
30127;SDS011;16942;53.196;6.592;2022-07-22T04:14:41;6.03;;;1.80;;
30127;SDS011;16942;53.196;6.592;2022-07-22T04:17:07;10.53;;;2.27;;
30127;SDS011;16942;53.196;6.592;2022-07-22T04:19:33;8.13;;;2.23;;
30127;SDS011;16942;53.196;6.592;2022-07-22T04:21:59;8.23;;;1.57;;
30127;SDS011;16942;53.196;6.592;2022-07-22T04:24:25;7.63;;;1.90;;
30127;SDS011;16942;53.196;6.592;2022-07-22T04:26:51;8.53;;;2.27;;
30127;SDS011;16942;53.196;6.592;2022-07-22T04:29:17;7.17;;;1.70;;
30127;SDS011;16942;53.196;6.592;2022-07-22T04:31:43;9.77;;;2.50;;
30127;SDS011;16942;53.196;6.592;2022-07-22T04:34:09;4.00;;;1.90;;
30127;SDS011;16942;53.196;6.592;2022-07-22T04:36:35;5.40;;;1.60;;
30127;SDS011;16942;53.196;6.592;2022-07-22T04:39:01;8.67;;;2.47;;
30127;SDS011;16942;53.196;6.592;2022-07-22T04:41:27;5.97;;;1.87;;
30127;SDS011;16942;53.196;6.592;2022-07-22T04:43:53;8.97;;;1.97;;
30127;SDS011;16942;53.196;6.592;2022-07-22T04:46:19;6.27;;;1.77;;
30127;SDS011;16942;53.196;6.592;2022-07-22T04:48:45;7.07;;;1.83;;
30127;SDS011;16942;53.196;6.592;2022-07-22T04:51:11;4.07;;;1.53;;
30127;SDS011;16942;53.196;6.592;2022-07-22T04:53:37;6.53;;;2.10;;
30127;SDS011;16942;53.196;6.592;2022-07-22T04:56:03;6.20;;;2.17;;
30127;SDS011;16942;53.196;6.592;2022-07-22T04:58:29;5.93;;;1.60;;
30127;SDS011;16942;53.196;6.592;2022-07-22T05:00:55;6.93;;;1.93;;
30127;SDS011;16942;53.196;6.592;2022-07-22T05:03:21;4.27;;;1.70;;
30127;SDS011;16942;53.196;6.592;2022-07-22T05:05:49;8.97;;;1.97;;
30127;SDS011;16942;53.196;6.592;2022-07-22T05:08:18;8.70;;;1.60;;
30127;SDS011;16942;53.196;6.592;2022-07-22T05:10:47;6.33;;;2.00;;
30127;SDS011;16942;53.196;6.592;2022-07-22T05:13:13;8.70;;;1.70;;
30127;SDS011;16942;53.196;6.592;2022-07-22T05:15:39;7.70;;;2.00;;
30127;SDS011;16942;53.196;6.592;2022-07-22T05:18:05;8.23;;;2.10;;
30127;SDS011;16942;53.196;6.592;2022-07-22T05:20:31;3.87;;;1.63;;
30127;SDS011;16942;53.196;6.592;2022-07-22T05:22:57;2.90;;;1.50;;
30127;SDS011;16942;53.196;6.592;2022-07-22T05:25:23;5.37;;;1.47;;
30127;SDS011;16942;53.196;6.592;2022-07-22T05:27:53;5.57;;;1.50;;
30127;SDS011;16942;53.196;6.592;2022-07-22T05:30:19;5.97;;;1.60;;
30127;SDS011;16942;53.196;6.592;2022-07-22T05:32:45;6.67;;;1.17;;
30127;SDS011;16942;53.196;6.592;2022-07-22T05:35:11;3.63;;;1.70;;
30127;SDS011;16942;53.196;6.592;2022-07-22T05:37:37;7.37;;;1.90;;
30127;SDS011;16942;53.196;6.592;2022-07-22T05:40:04;4.57;;;1.97;;
30127;SDS011;16942;53.196;6.592;2022-07-22T05:42:30;7.90;;;2.20;;
30127;SDS011;16942;53.196;6.592;2022-07-22T05:44:56;9.33;;;1.80;;
30127;SDS011;16942;53.196;6.592;2022-07-22T05:47:22;5.53;;;1.77;;
30127;SDS011;16942;53.196;6.592;2022-07-22T05:49:48;7.80;;;1.77;;
30127;SDS011;16942;53.196;6.592;2022-07-22T05:52:14;12.00;;;1.93;;
30127;SDS011;16942;53.196;6.592;2022-07-22T05:54:40;6.47;;;1.43;;
30127;SDS011;16942;53.196;6.592;2022-07-22T05:57:06;9.40;;;1.77;;
30127;SDS011;16942;53.196;6.592;2022-07-22T05:59:35;10.63;;;1.80;;
30127;SDS011;16942;53.196;6.592;2022-07-22T06:02:02;6.80;;;1.60;;
30127;SDS011;16942;53.196;6.592;2022-07-22T06:04:28;4.77;;;1.87;;
30127;SDS011;16942;53.196;6.592;2022-07-22T06:06:54;8.57;;;1.60;;
30127;SDS011;16942;53.196;6.592;2022-07-22T06:09:20;4.77;;;1.67;;
30127;SDS011;16942;53.196;6.592;2022-07-22T06:11:46;4.20;;;1.47;;
30127;SDS011;16942;53.196;6.592;2022-07-22T06:14:12;7.40;;;1.63;;
30127;SDS011;16942;53.196;6.592;2022-07-22T06:16:38;10.60;;;1.90;;
30127;SDS011;16942;53.196;6.592;2022-07-22T06:19:04;5.13;;;1.50;;
30127;SDS011;16942;53.196;6.592;2022-07-22T06:21:30;18.40;;;2.73;;
30127;SDS011;16942;53.196;6.592;2022-07-22T06:23:56;4.17;;;1.60;;
30127;SDS011;16942;53.196;6.592;2022-07-22T06:26:22;5.80;;;1.53;;
30127;SDS011;16942;53.196;6.592;2022-07-22T06:28:48;13.40;;;2.93;;
30127;SDS011;16942;53.196;6.592;2022-07-22T06:31:14;4.23;;;1.43;;
30127;SDS011;16942;53.196;6.592;2022-07-22T06:33:41;3.10;;;1.23;;
30127;SDS011;16942;53.196;6.592;2022-07-22T06:36:07;12.27;;;2.43;;
30127;SDS011;16942;53.196;6.592;2022-07-22T06:38:33;4.73;;;1.70;;
30127;SDS011;16942;53.196;6.592;2022-07-22T06:40:59;4.07;;;1.50;;
30127;SDS011;16942;53.196;6.592;2022-07-22T06:43:26;8.03;;;1.87;;
30127;SDS011;16942;53.196;6.592;2022-07-22T06:45:53;7.17;;;1.80;;
30127;SDS011;16942;53.196;6.592;2022-07-22T06:48:20;5.17;;;1.53;;
30127;SDS011;16942;53.196;6.592;2022-07-22T06:50:46;5.33;;;1.40;;
30127;SDS011;16942;53.196;6.592;2022-07-22T06:53:12;7.60;;;1.57;;
30127;SDS011;16942;53.196;6.592;2022-07-22T06:55:38;6.63;;;1.60;;
30127;SDS011;16942;53.196;6.592;2022-07-22T06:58:04;8.17;;;2.47;;
30127;SDS011;16942;53.196;6.592;2022-07-22T07:00:30;3.37;;;1.30;;
30127;SDS011;16942;53.196;6.592;2022-07-22T07:03:00;6.63;;;1.70;;
30127;SDS011;16942;53.196;6.592;2022-07-22T07:05:26;6.70;;;1.57;;
30127;SDS011;16942;53.196;6.592;2022-07-22T07:07:53;2.30;;;1.40;;
30127;SDS011;16942;53.196;6.592;2022-07-22T07:10:19;3.27;;;1.27;;
30127;SDS011;16942;53.196;6.592;2022-07-22T07:12:45;4.00;;;1.50;;
30127;SDS011;16942;53.196;6.592;2022-07-22T07:15:11;5.97;;;1.87;;
30127;SDS011;16942;53.196;6.592;2022-07-22T07:17:37;4.53;;;1.27;;
30127;SDS011;16942;53.196;6.592;2022-07-22T07:20:04;2.97;;;1.10;;
30127;SDS011;16942;53.196;6.592;2022-07-22T07:22:31;8.10;;;1.40;;
30127;SDS011;16942;53.196;6.592;2022-07-22T07:24:57;4.07;;;1.70;;
30127;SDS011;16942;53.196;6.592;2022-07-22T07:27:23;4.83;;;1.40;;
30127;SDS011;16942;53.196;6.592;2022-07-22T07:29:49;5.80;;;1.40;;
30127;SDS011;16942;53.196;6.592;2022-07-22T07:32:16;2.27;;;1.20;;
30127;SDS011;16942;53.196;6.592;2022-07-22T07:34:42;2.63;;;1.10;;
30127;SDS011;16942;53.196;6.592;2022-07-22T07:37:07;5.87;;;1.37;;
30127;SDS011;16942;53.196;6.592;2022-07-22T07:39:33;3.83;;;1.20;;
30127;SDS011;16942;53.196;6.592;2022-07-22T07:42:00;6.87;;;1.10;;
30127;SDS011;16942;53.196;6.592;2022-07-22T07:44:26;6.17;;;1.27;;
30127;SDS011;16942;53.196;6.592;2022-07-22T07:46:52;6.60;;;1.33;;
30127;SDS011;16942;53.196;6.592;2022-07-22T07:49:18;3.37;;;1.00;;
30127;SDS011;16942;53.196;6.592;2022-07-22T07:51:44;4.77;;;1.10;;
30127;SDS011;16942;53.196;6.592;2022-07-22T07:54:10;5.50;;;1.10;;
30127;SDS011;16942;53.196;6.592;2022-07-22T07:56:36;3.73;;;1.10;;
30127;SDS011;16942;53.196;6.592;2022-07-22T07:59:02;2.50;;;0.90;;
30127;SDS011;16942;53.196;6.592;2022-07-22T08:01:28;2.27;;;1.20;;
30127;SDS011;16942;53.196;6.592;2022-07-22T08:03:54;2.87;;;1.40;;
30127;SDS011;16942;53.196;6.592;2022-07-22T08:06:20;5.50;;;1.63;;
30127;SDS011;16942;53.196;6.592;2022-07-22T08:08:46;10.57;;;1.40;;
30127;SDS011;16942;53.196;6.592;2022-07-22T08:11:12;10.23;;;1.27;;
30127;SDS011;16942;53.196;6.592;2022-07-22T08:13:38;3.53;;;1.23;;
30127;SDS011;16942;53.196;6.592;2022-07-22T08:16:04;16.17;;;1.93;;
30127;SDS011;16942;53.196;6.592;2022-07-22T08:18:31;2.87;;;1.07;;
30127;SDS011;16942;53.196;6.592;2022-07-22T08:20:57;4.87;;;1.10;;
30127;SDS011;16942;53.196;6.592;2022-07-22T08:23:23;3.40;;;1.20;;
30127;SDS011;16942;53.196;6.592;2022-07-22T08:25:49;6.27;;;1.30;;
30127;SDS011;16942;53.196;6.592;2022-07-22T08:28:15;3.60;;;1.17;;
30127;SDS011;16942;53.196;6.592;2022-07-22T08:30:41;7.53;;;1.10;;
30127;SDS011;16942;53.196;6.592;2022-07-22T08:33:08;2.87;;;1.10;;
30127;SDS011;16942;53.196;6.592;2022-07-22T08:35:34;3.93;;;1.03;;
30127;SDS011;16942;53.196;6.592;2022-07-22T08:38:01;4.70;;;1.10;;
30127;SDS011;16942;53.196;6.592;2022-07-22T08:40:27;6.53;;;1.30;;
30127;SDS011;16942;53.196;6.592;2022-07-22T08:42:53;4.30;;;1.40;;
30127;SDS011;16942;53.196;6.592;2022-07-22T08:45:19;6.33;;;1.47;;
30127;SDS011;16942;53.196;6.592;2022-07-22T08:47:46;7.33;;;1.67;;
30127;SDS011;16942;53.196;6.592;2022-07-22T08:50:12;5.17;;;1.20;;
30127;SDS011;16942;53.196;6.592;2022-07-22T08:52:38;2.73;;;1.30;;
30127;SDS011;16942;53.196;6.592;2022-07-22T08:55:05;6.23;;;1.93;;
30127;SDS011;16942;53.196;6.592;2022-07-22T08:57:31;3.73;;;1.20;;
30127;SDS011;16942;53.196;6.592;2022-07-22T08:59:58;7.23;;;1.13;;
30127;SDS011;16942;53.196;6.592;2022-07-22T09:02:24;4.80;;;0.90;;
30127;SDS011;16942;53.196;6.592;2022-07-22T09:04:58;4.00;;;0.90;;
30127;SDS011;16942;53.196;6.592;2022-07-22T09:09:50;2.87;;;1.03;;
30127;SDS011;16942;53.196;6.592;2022-07-22T09:12:16;5.20;;;1.40;;
30127;SDS011;16942;53.196;6.592;2022-07-22T09:14:43;3.17;;;1.40;;
30127;SDS011;16942;53.196;6.592;2022-07-22T09:17:21;4.00;;;1.17;;
30127;SDS011;16942;53.196;6.592;2022-07-22T09:19:48;4.00;;;1.20;;
30127;SDS011;16942;53.196;6.592;2022-07-22T09:22:14;8.13;;;1.40;;
30127;SDS011;16942;53.196;6.592;2022-07-22T09:24:40;6.47;;;1.93;;
30127;SDS011;16942;53.196;6.592;2022-07-22T09:27:06;5.97;;;1.03;;
30127;SDS011;16942;53.196;6.592;2022-07-22T09:29:32;7.33;;;1.20;;
30127;SDS011;16942;53.196;6.592;2022-07-22T09:31:58;2.70;;;1.30;;
30127;SDS011;16942;53.196;6.592;2022-07-22T09:34:30;5.13;;;0.90;;
30127;SDS011;16942;53.196;6.592;2022-07-22T09:36:58;4.63;;;0.93;;
30127;SDS011;16942;53.196;6.592;2022-07-22T09:39:29;5.97;;;1.07;;
30127;SDS011;16942;53.196;6.592;2022-07-22T09:42:06;5.20;;;0.90;;
30127;SDS011;16942;53.196;6.592;2022-07-22T09:44:32;5.40;;;1.00;;
30127;SDS011;16942;53.196;6.592;2022-07-22T09:46:58;2.13;;;0.90;;
30127;SDS011;16942;53.196;6.592;2022-07-22T09:49:35;2.30;;;0.93;;
30127;SDS011;16942;53.196;6.592;2022-07-22T09:52:04;6.50;;;1.30;;
30127;SDS011;16942;53.196;6.592;2022-07-22T09:54:30;3.93;;;1.10;;
30127;SDS011;16942;53.196;6.592;2022-07-22T09:56:56;4.33;;;1.00;;
30127;SDS011;16942;53.196;6.592;2022-07-22T09:59:22;3.43;;;1.00;;
30127;SDS011;16942;53.196;6.592;2022-07-22T10:01:50;1.87;;;0.90;;
30127;SDS011;16942;53.196;6.592;2022-07-22T10:04:17;4.13;;;1.10;;
30127;SDS011;16942;53.196;6.592;2022-07-22T10:06:45;7.50;;;1.10;;
30127;SDS011;16942;53.196;6.592;2022-07-22T10:09:12;3.43;;;0.83;;
30127;SDS011;16942;53.196;6.592;2022-07-22T10:11:39;2.70;;;1.00;;
30127;SDS011;16942;53.196;6.592;2022-07-22T10:14:10;1.97;;;0.97;;
30127;SDS011;16942;53.196;6.592;2022-07-22T10:16:37;2.87;;;0.77;;
30127;SDS011;16942;53.196;6.592;2022-07-22T10:19:03;2.43;;;0.87;;
30127;SDS011;16942;53.196;6.592;2022-07-22T10:21:33;3.47;;;0.90;;
30127;SDS011;16942;53.196;6.592;2022-07-22T10:24:08;4.63;;;0.77;;
30127;SDS011;16942;53.196;6.592;2022-07-22T10:29:40;1.05;;;0.60;;
30127;SDS011;16942;53.196;6.592;2022-07-22T10:34:41;2.35;;;0.70;;
30127;SDS011;16942;53.196;6.592;2022-07-22T10:40:08;1.48;;;0.90;;
30127;SDS011;16942;53.196;6.592;2022-07-22T10:43:02;2.78;;;0.93;;
30127;SDS011;16942;53.196;6.592;2022-07-22T10:45:50;4.75;;;0.80;;
30127;SDS011;16942;53.196;6.592;2022-07-22T10:48:19;0.80;;;0.60;;
30127;SDS011;16942;53.196;6.592;2022-07-22T10:50:46;1.30;;;0.70;;
30127;SDS011;16942;53.196;6.592;2022-07-22T10:53:21;6.80;;;1.88;;
30127;SDS011;16942;53.196;6.592;2022-07-22T10:56:22;3.05;;;1.10;;
30127;SDS011;16942;53.196;6.592;2022-07-22T10:58:41;3.42;;;0.80;;
30127;SDS011;16942;53.196;6.592;2022-07-22T11:01:08;3.08;;;0.80;;
30127;SDS011;16942;53.196;6.592;2022-07-22T11:03:37;3.10;;;1.10;;
30127;SDS011;16942;53.196;6.592;2022-07-22T11:06:14;0.85;;;0.77;;
30127;SDS011;16942;53.196;6.592;2022-07-22T11:08:40;3.15;;;1.70;;
30127;SDS011;16942;53.196;6.592;2022-07-22T11:11:07;3.95;;;1.70;;
30127;SDS011;16942;53.196;6.592;2022-07-22T11:13:36;2.72;;;0.82;;
30127;SDS011;16942;53.196;6.592;2022-07-22T11:16:19;4.20;;;0.77;;
30127;SDS011;16942;53.196;6.592;2022-07-22T11:18:50;1.90;;;0.80;;
30127;SDS011;16942;53.196;6.592;2022-07-22T11:21:21;2.58;;;0.90;;
30127;SDS011;16942;53.196;6.592;2022-07-22T11:23:48;1.00;;;0.70;;
30127;SDS011;16942;53.196;6.592;2022-07-22T11:26:15;1.33;;;0.70;;
30127;SDS011;16942;53.196;6.592;2022-07-22T11:28:42;1.65;;;0.70;;
30127;SDS011;16942;53.196;6.592;2022-07-22T11:31:09;2.20;;;0.73;;
30127;SDS011;16942;53.196;6.592;2022-07-22T11:33:35;3.08;;;0.93;;
30127;SDS011;16942;53.196;6.592;2022-07-22T11:36:02;4.72;;;0.80;;
30127;SDS011;16942;53.196;6.592;2022-07-22T11:41:07;0.95;;;0.63;;
30127;SDS011;16942;53.196;6.592;2022-07-22T11:43:46;2.53;;;0.60;;
30127;SDS011;16942;53.196;6.592;2022-07-22T11:46:13;0.95;;;0.60;;
30127;SDS011;16942;53.196;6.592;2022-07-22T11:48:40;1.33;;;1.02;;
30127;SDS011;16942;53.196;6.592;2022-07-22T11:51:08;1.75;;;0.90;;
30127;SDS011;16942;53.196;6.592;2022-07-22T11:53:37;1.73;;;0.50;;
30127;SDS011;16942;53.196;6.592;2022-07-22T11:56:04;2.08;;;0.55;;
30127;SDS011;16942;53.196;6.592;2022-07-22T11:58:37;2.47;;;0.60;;
30127;SDS011;16942;53.196;6.592;2022-07-22T12:01:04;5.32;;;0.70;;
30127;SDS011;16942;53.196;6.592;2022-07-22T12:03:32;5.28;;;0.70;;
30127;SDS011;16942;53.196;6.592;2022-07-22T12:05:58;2.75;;;0.70;;
30127;SDS011;16942;53.196;6.592;2022-07-22T12:08:25;2.10;;;0.73;;
30127;SDS011;16942;53.196;6.592;2022-07-22T12:10:51;0.57;;;0.57;;
30127;SDS011;16942;53.196;6.592;2022-07-22T12:13:18;1.75;;;0.63;;
30127;SDS011;16942;53.196;6.592;2022-07-22T12:15:44;2.53;;;0.50;;
30127;SDS011;16942;53.196;6.592;2022-07-22T12:20:43;1.85;;;0.50;;
30127;SDS011;16942;53.196;6.592;2022-07-22T12:23:09;1.63;;;0.70;;
30127;SDS011;16942;53.196;6.592;2022-07-22T12:25:48;0.52;;;0.50;;
30127;SDS011;16942;53.196;6.592;2022-07-22T12:28:14;0.90;;;0.43;;
30127;SDS011;16942;53.196;6.592;2022-07-22T12:30:40;1.00;;;0.60;;
30127;SDS011;16942;53.196;6.592;2022-07-22T12:33:17;0.70;;;0.60;;
30127;SDS011;16942;53.196;6.592;2022-07-22T12:35:43;2.83;;;0.60;;
30127;SDS011;16942;53.196;6.592;2022-07-22T12:38:09;2.33;;;0.40;;
30127;SDS011;16942;53.196;6.592;2022-07-22T12:40:36;0.40;;;0.40;;
30127;SDS011;16942;53.196;6.592;2022-07-22T12:43:04;1.15;;;0.50;;
30127;SDS011;16942;53.196;6.592;2022-07-22T12:45:31;2.65;;;0.60;;
30127;SDS011;16942;53.196;6.592;2022-07-22T12:50:30;1.33;;;0.73;;
30127;SDS011;16942;53.196;6.592;2022-07-22T12:52:57;3.10;;;0.90;;
30127;SDS011;16942;53.196;6.592;2022-07-22T12:55:25;2.42;;;0.80;;
30127;SDS011;16942;53.196;6.592;2022-07-22T12:57:51;1.77;;;0.65;;
30127;SDS011;16942;53.196;6.592;2022-07-22T13:00:20;0.85;;;0.57;;
30127;SDS011;16942;53.196;6.592;2022-07-22T13:02:46;1.65;;;0.70;;
30127;SDS011;16942;53.196;6.592;2022-07-22T13:05:12;1.15;;;0.60;;
30127;SDS011;16942;53.196;6.592;2022-07-22T13:07:39;2.63;;;0.90;;
30127;SDS011;16942;53.196;6.592;2022-07-22T13:10:05;1.55;;;0.50;;
30127;SDS011;16942;53.196;6.592;2022-07-22T13:12:31;1.85;;;0.70;;
30127;SDS011;16942;53.196;6.592;2022-07-22T13:14:57;1.08;;;0.60;;
30127;SDS011;16942;53.196;6.592;2022-07-22T13:17:23;3.38;;;0.75;;
30127;SDS011;16942;53.196;6.592;2022-07-22T13:19:49;2.00;;;0.70;;
30127;SDS011;16942;53.196;6.592;2022-07-22T13:22:15;1.42;;;0.63;;
30127;SDS011;16942;53.196;6.592;2022-07-22T13:24:42;2.50;;;0.73;;
30127;SDS011;16942;53.196;6.592;2022-07-22T13:27:08;8.55;;;0.65;;
30127;SDS011;16942;53.196;6.592;2022-07-22T13:29:34;2.90;;;0.70;;
30127;SDS011;16942;53.196;6.592;2022-07-22T13:32:00;0.60;;;0.50;;
30127;SDS011;16942;53.196;6.592;2022-07-22T13:34:26;0.57;;;0.50;;
30127;SDS011;16942;53.196;6.592;2022-07-22T13:36:52;0.70;;;0.55;;
30127;SDS011;16942;53.196;6.592;2022-07-22T13:39:18;1.30;;;0.60;;
30127;SDS011;16942;53.196;6.592;2022-07-22T13:41:44;2.17;;;0.80;;
30127;SDS011;16942;53.196;6.592;2022-07-22T13:44:13;4.13;;;1.10;;
30127;SDS011;16942;53.196;6.592;2022-07-22T13:46:39;3.40;;;1.10;;
30127;SDS011;16942;53.196;6.592;2022-07-22T13:49:06;2.25;;;1.08;;
30127;SDS011;16942;53.196;6.592;2022-07-22T13:51:32;1.75;;;1.00;;
30127;SDS011;16942;53.196;6.592;2022-07-22T13:53:58;1.55;;;0.93;;
30127;SDS011;16942;53.196;6.592;2022-07-22T13:56:24;2.00;;;0.90;;
30127;SDS011;16942;53.196;6.592;2022-07-22T13:58:50;4.10;;;0.90;;
30127;SDS011;16942;53.196;6.592;2022-07-22T14:01:17;2.72;;;0.90;;
30127;SDS011;16942;53.196;6.592;2022-07-22T14:03:45;1.40;;;0.75;;
30127;SDS011;16942;53.196;6.592;2022-07-22T14:06:11;0.80;;;0.80;;
30127;SDS011;16942;53.196;6.592;2022-07-22T14:08:37;2.08;;;0.55;;
30127;SDS011;16942;53.196;6.592;2022-07-22T14:11:03;4.15;;;1.00;;
30127;SDS011;16942;53.196;6.592;2022-07-22T14:13:30;2.28;;;1.00;;
30127;SDS011;16942;53.196;6.592;2022-07-22T14:15:56;4.13;;;0.80;;
30127;SDS011;16942;53.196;6.592;2022-07-22T14:18:22;3.10;;;0.75;;
30127;SDS011;16942;53.196;6.592;2022-07-22T14:20:48;1.10;;;0.80;;
30127;SDS011;16942;53.196;6.592;2022-07-22T14:23:14;4.32;;;1.10;;
30127;SDS011;16942;53.196;6.592;2022-07-22T14:25:41;2.05;;;0.95;;
30127;SDS011;16942;53.196;6.592;2022-07-22T14:28:08;2.35;;;0.85;;
30127;SDS011;16942;53.196;6.592;2022-07-22T14:30:34;5.22;;;1.35;;
30127;SDS011;16942;53.196;6.592;2022-07-22T14:33:01;2.55;;;1.23;;
30127;SDS011;16942;53.196;6.592;2022-07-22T14:35:27;3.08;;;0.80;;
30127;SDS011;16942;53.196;6.592;2022-07-22T14:37:53;1.60;;;0.73;;
30127;SDS011;16942;53.196;6.592;2022-07-22T14:40:19;2.70;;;1.15;;
30127;SDS011;16942;53.196;6.592;2022-07-22T14:42:46;5.45;;;1.65;;
30127;SDS011;16942;53.196;6.592;2022-07-22T14:45:13;3.13;;;1.08;;
30127;SDS011;16942;53.196;6.592;2022-07-22T14:47:39;6.15;;;1.20;;
30127;SDS011;16942;53.196;6.592;2022-07-22T14:50:06;4.65;;;0.90;;
30127;SDS011;16942;53.196;6.592;2022-07-22T14:52:32;5.90;;;1.42;;
30127;SDS011;16942;53.196;6.592;2022-07-22T14:54:58;8.07;;;2.05;;
30127;SDS011;16942;53.196;6.592;2022-07-22T14:57:24;1.65;;;0.90;;
30127;SDS011;16942;53.196;6.592;2022-07-22T14:59:50;1.75;;;0.63;;
30127;SDS011;16942;53.196;6.592;2022-07-22T15:02:16;0.98;;;0.60;;